Time;durP1;ratioP1;P1;durP2;ratioP2;P2;SDS_P1;SDS_P2;PMS_P1;PMS_P2;Temp;Humidity;BMP_temperature;BMP_pressure;BME280_temperature;BME280_humidity;BME280_pressure;Samples;Min_cycle;Max_cycle;Signal;HPM_P1;HPM_P2
2020/02/17 00:00:17;;;;;;;2;1.8;;;;;;;12.72;47;95082.18;;;;
2020/02/17 00:01:23;;;;;;;2;1.8;;;;;;;12.72;47;95082.18;;;;
2020/02/17 00:02:24;;;;;;;2;1.8;;;;;;;12.72;47;95082.18;;;;
2020/02/17 00:03:25;;;;;;;2;1.8;;;;;;;12.72;47;95082.18;;;;
2020/02/17 00:04:27;;;;;;;2;1.8;;;;;;;12.72;47;95082.18;;;;
2020/02/17 00:05:28;;;;;;;2;1.8;;;;;;;12.72;47;95082.18;;;;
2020/02/17 00:06:28;;;;;;;2;1.8;;;;;;;12.72;47;95082.18;;;;
2020/02/17 00:07:29;;;;;;;2;1.8;;;;;;;12.72;47;95082.18;;;;
2020/02/17 00:08:29;;;;;;;4.699999;2;;;;;;;12.81;46.5;95088.4;;;;
2020/02/17 00:09:30;;;;;;;4.699999;2;;;;;;;12.81;46.5;95088.4;;;;
2020/02/17 00:10:30;;;;;;;4.699999;2;;;;;;;12.81;46.5;95088.4;;;;
2020/02/17 00:11:31;;;;;;;4.699999;2;;;;;;;12.81;46.5;95088.4;;;;
2020/02/17 00:12:31;;;;;;;4.699999;2;;;;;;;12.81;46.5;95088.4;;;;
2020/02/17 00:13:32;;;;;;;4.699999;2;;;;;;;12.81;46.5;95088.4;;;;
2020/02/17 00:15:37;;;;;;;4.699999;2;;;;;;;12.81;46.5;95088.4;;;;
2020/02/17 00:16:37;;;;;;;4.699999;2;;;;;;;12.81;46.5;95088.4;;;;
2020/02/17 00:17:38;;;;;;;4.699999;2;;;;;;;12.81;46.5;95088.4;;;;
2020/02/17 00:18:38;;;;;;;4.699999;2;;;;;;;12.81;46.5;95088.4;;;;
2020/02/17 00:19:39;;;;;;;2.05;1.8;;;;;;;12.88;46.18262;95069.9;;;;
2020/02/17 00:20:39;;;;;;;2.05;1.8;;;;;;;12.88;46.18262;95069.9;;;;
2020/02/17 00:21:40;;;;;;;2.05;1.8;;;;;;;12.88;46.18262;95069.9;;;;
2020/02/17 00:22:40;;;;;;;2.05;1.8;;;;;;;12.88;46.18262;95069.9;;;;
2020/02/17 00:23:41;;;;;;;2.05;1.8;;;;;;;12.88;46.18262;95069.9;;;;
2020/02/17 00:24:41;;;;;;;2.05;1.8;;;;;;;12.88;46.18262;95069.9;;;;
2020/02/17 00:25:42;;;;;;;2.05;1.8;;;;;;;12.88;46.18262;95069.9;;;;
2020/02/17 00:26:42;;;;;;;2.05;1.8;;;;;;;12.88;46.18262;95069.9;;;;
2020/02/17 00:27:43;;;;;;;2.05;1.8;;;;;;;12.88;46.18262;95069.9;;;;
2020/02/17 00:28:43;;;;;;;2.05;1.8;;;;;;;12.88;46.18262;95069.9;;;;
2020/02/17 00:29:44;;;;;;;2.05;1.8;;;;;;;12.91;45.70801;95060.88;;;;
2020/02/17 00:30:44;;;;;;;2.05;1.8;;;;;;;12.91;45.70801;95060.88;;;;
2020/02/17 00:31:45;;;;;;;2.05;1.8;;;;;;;12.91;45.70801;95060.88;;;;
2020/02/17 00:32:45;;;;;;;2.05;1.8;;;;;;;12.91;45.70801;95060.88;;;;
2020/02/17 00:33:46;;;;;;;2.05;1.8;;;;;;;12.91;45.70801;95060.88;;;;
2020/02/17 00:34:46;;;;;;;2.05;1.8;;;;;;;12.91;45.70801;95060.88;;;;
2020/02/17 00:35:47;;;;;;;2.05;1.8;;;;;;;12.91;45.70801;95060.88;;;;
2020/02/17 00:36:47;;;;;;;2.05;1.8;;;;;;;12.91;45.70801;95060.88;;;;
2020/02/17 00:37:47;;;;;;;2.05;1.8;;;;;;;12.91;45.70801;95060.88;;;;
2020/02/17 00:38:48;;;;;;;2.05;1.8;;;;;;;12.91;45.70801;95060.88;;;;
2020/02/17 00:39:48;;;;;;;2.05;1.8;;;;;;;12.91;45.70801;95060.88;;;;
2020/02/17 00:40:49;;;;;;;2.4;2;;;;;;;13.03;45.08105;95062.92;;;;
2020/02/17 00:41:49;;;;;;;2.4;2;;;;;;;13.03;45.08105;95062.92;;;;
2020/02/17 00:42:50;;;;;;;2.4;2;;;;;;;13.03;45.08105;95062.92;;;;
2020/02/17 00:43:50;;;;;;;2.4;2;;;;;;;13.03;45.08105;95062.92;;;;
2020/02/17 00:44:51;;;;;;;2.4;2;;;;;;;13.03;45.08105;95062.92;;;;
2020/02/17 00:45:52;;;;;;;2.4;2;;;;;;;13.03;45.08105;95062.92;;;;
2020/02/17 00:46:52;;;;;;;2.4;2;;;;;;;13.03;45.08105;95062.92;;;;
2020/02/17 00:47:52;;;;;;;2.4;2;;;;;;;13.03;45.08105;95062.92;;;;
2020/02/17 00:48:53;;;;;;;2.4;2;;;;;;;13.03;45.08105;95062.92;;;;
2020/02/17 00:49:53;;;;;;;2.4;2;;;;;;;13.03;45.08105;95062.92;;;;
2020/02/17 00:50:54;;;;;;;1.6;1.5;;;;;;;13;44.80566;95077.48;;;;
2020/02/17 00:51:54;;;;;;;1.6;1.5;;;;;;;13;44.80566;95077.48;;;;
2020/02/17 00:52:55;;;;;;;1.6;1.5;;;;;;;13;44.80566;95077.48;;;;
2020/02/17 00:53:55;;;;;;;1.6;1.5;;;;;;;13;44.80566;95077.48;;;;
2020/02/17 00:54:56;;;;;;;1.6;1.5;;;;;;;13;44.80566;95077.48;;;;
2020/02/17 00:55:56;;;;;;;1.6;1.5;;;;;;;13;44.80566;95077.48;;;;
2020/02/17 00:56:57;;;;;;;1.6;1.5;;;;;;;13;44.80566;95077.48;;;;
2020/02/17 00:57:57;;;;;;;1.6;1.5;;;;;;;13;44.80566;95077.48;;;;
2020/02/17 00:58:58;;;;;;;1.6;1.5;;;;;;;13;44.80566;95077.48;;;;
2020/02/17 00:59:58;;;;;;;1.6;1.5;;;;;;;13;44.80566;95077.48;;;;
2020/02/17 01:00:59;;;;;;;1.6;1.5;;;;;;;13;44.80566;95077.48;;;;
2020/02/17 01:01:59;;;;;;;1.7;1.6;;;;;;;13.02;44.44922;95086.6;;;;
2020/02/17 01:03:00;;;;;;;1.7;1.6;;;;;;;13.02;44.44922;95086.6;;;;
2020/02/17 01:04:00;;;;;;;1.7;1.6;;;;;;;13.02;44.44922;95086.6;;;;
2020/02/17 01:05:01;;;;;;;1.7;1.6;;;;;;;13.02;44.44922;95086.6;;;;
2020/02/17 01:06:01;;;;;;;1.7;1.6;;;;;;;13.02;44.44922;95086.6;;;;
2020/02/17 01:07:02;;;;;;;1.7;1.6;;;;;;;13.02;44.44922;95086.6;;;;
2020/02/17 01:08:03;;;;;;;1.7;1.6;;;;;;;13.02;44.44922;95086.6;;;;
2020/02/17 01:09:04;;;;;;;1.7;1.6;;;;;;;13.02;44.44922;95086.6;;;;
2020/02/17 01:10:12;;;;;;;1.7;1.6;;;;;;;13.02;44.44922;95086.6;;;;
2020/02/17 01:11:27;;;;;;;1.7;1.6;;;;;;;13.02;44.44922;95086.6;;;;
2020/02/17 01:13:00;;;;;;;1.7;1.6;;;;;;;12.99;44.36035;95079.78;;;;
2020/02/17 01:14:01;;;;;;;1.7;1.6;;;;;;;12.99;44.36035;95079.78;;;;
2020/02/17 01:15:05;;;;;;;1.7;1.6;;;;;;;12.99;44.36035;95079.78;;;;
2020/02/17 01:16:17;;;;;;;1.7;1.6;;;;;;;12.99;44.36035;95079.78;;;;
2020/02/17 01:17:19;;;;;;;1.7;1.6;;;;;;;12.99;44.36035;95079.78;;;;
2020/02/17 01:18:21;;;;;;;1.7;1.6;;;;;;;12.99;44.36035;95079.78;;;;
2020/02/17 01:19:23;;;;;;;1.7;1.6;;;;;;;12.99;44.36035;95079.78;;;;
2020/02/17 01:20:24;;;;;;;1.7;1.6;;;;;;;12.99;44.36035;95079.78;;;;
2020/02/17 01:21:39;;;;;;;1.7;1.6;;;;;;;12.99;44.36035;95079.78;;;;
2020/02/17 01:22:41;;;;;;;1.5;1.4;;;;;;;13;44.14453;95086.44;;;;
2020/02/17 01:24:11;;;;;;;1.5;1.4;;;;;;;13;44.14453;95086.44;;;;
2020/02/17 01:25:12;;;;;;;1.5;1.4;;;;;;;13;44.14453;95086.44;;;;
2020/02/17 01:26:12;;;;;;;1.5;1.4;;;;;;;13;44.14453;95086.44;;;;
2020/02/17 01:27:13;;;;;;;1.5;1.4;;;;;;;13;44.14453;95086.44;;;;
2020/02/17 01:28:13;;;;;;;1.5;1.4;;;;;;;13;44.14453;95086.44;;;;
2020/02/17 01:29:14;;;;;;;1.5;1.4;;;;;;;13;44.14453;95086.44;;;;
2020/02/17 01:30:14;;;;;;;1.5;1.4;;;;;;;13;44.14453;95086.44;;;;
2020/02/17 01:31:15;;;;;;;1.5;1.4;;;;;;;13;44.14453;95086.44;;;;
2020/02/17 01:32:15;;;;;;;1.5;1.4;;;;;;;13;44.14453;95086.44;;;;
2020/02/17 01:33:16;;;;;;;2.2;1.45;;;;;;;12.97;44.19434;95088.28;;;;
2020/02/17 01:34:16;;;;;;;2.2;1.45;;;;;;;12.97;44.19434;95088.28;;;;
2020/02/17 01:35:17;;;;;;;2.2;1.45;;;;;;;12.97;44.19434;95088.28;;;;
2020/02/17 01:36:18;;;;;;;2.2;1.45;;;;;;;12.97;44.19434;95088.28;;;;
2020/02/17 01:37:18;;;;;;;2.2;1.45;;;;;;;12.97;44.19434;95088.28;;;;
2020/02/17 01:38:18;;;;;;;2.2;1.45;;;;;;;12.97;44.19434;95088.28;;;;
2020/02/17 01:39:19;;;;;;;2.2;1.45;;;;;;;12.97;44.19434;95088.28;;;;
2020/02/17 01:40:23;;;;;;;2.2;1.45;;;;;;;12.97;44.19434;95088.28;;;;
2020/02/17 01:41:24;;;;;;;2.2;1.45;;;;;;;12.97;44.19434;95088.28;;;;
2020/02/17 01:42:24;;;;;;;2.2;1.45;;;;;;;12.97;44.19434;95088.28;;;;
2020/02/17 01:43:25;;;;;;;2.2;1.45;;;;;;;12.97;44.19434;95088.28;;;;
2020/02/17 01:44:25;;;;;;;1.6;1.5;;;;;;;12.92;44.08105;95109.92;;;;
2020/02/17 01:45:26;;;;;;;1.6;1.5;;;;;;;12.92;44.08105;95109.92;;;;
2020/02/17 01:46:27;;;;;;;1.6;1.5;;;;;;;12.92;44.08105;95109.92;;;;
2020/02/17 01:47:27;;;;;;;1.6;1.5;;;;;;;12.92;44.08105;95109.92;;;;
2020/02/17 01:48:28;;;;;;;1.6;1.5;;;;;;;12.92;44.08105;95109.92;;;;
2020/02/17 01:49:28;;;;;;;1.6;1.5;;;;;;;12.92;44.08105;95109.92;;;;
2020/02/17 01:50:29;;;;;;;1.6;1.5;;;;;;;12.92;44.08105;95109.92;;;;
2020/02/17 01:51:29;;;;;;;1.6;1.5;;;;;;;12.92;44.08105;95109.92;;;;
2020/02/17 01:52:30;;;;;;;1.6;1.5;;;;;;;12.92;44.08105;95109.92;;;;
2020/02/17 01:53:30;;;;;;;1.6;1.5;;;;;;;12.92;44.08105;95109.92;;;;
2020/02/17 01:54:31;;;;;;;1.5;1.4;;;;;;;12.81;44.27637;95141.24;;;;
2020/02/17 01:55:32;;;;;;;1.5;1.4;;;;;;;12.81;44.27637;95141.24;;;;
2020/02/17 01:56:33;;;;;;;1.5;1.4;;;;;;;12.81;44.27637;95141.24;;;;
2020/02/17 01:57:35;;;;;;;1.5;1.4;;;;;;;12.81;44.27637;95141.24;;;;
2020/02/17 01:58:39;;;;;;;1.5;1.4;;;;;;;12.81;44.27637;95141.24;;;;
2020/02/17 01:59:40;;;;;;;1.5;1.4;;;;;;;12.81;44.27637;95141.24;;;;
2020/02/17 02:00:42;;;;;;;1.5;1.4;;;;;;;12.81;44.27637;95141.24;;;;
2020/02/17 02:01:42;;;;;;;1.5;1.4;;;;;;;12.81;44.27637;95141.24;;;;
2020/02/17 02:02:44;;;;;;;1.5;1.4;;;;;;;12.81;44.27637;95141.24;;;;
2020/02/17 02:03:47;;;;;;;1.5;1.4;;;;;;;12.81;44.27637;95141.24;;;;
2020/02/17 02:04:49;;;;;;;1.5;1.4;;;;;;;12.81;44.27637;95141.24;;;;
2020/02/17 02:05:53;;;;;;;1.7;1.5;;;;;;;12.48;44.79688;95168.31;;;;
2020/02/17 02:07:00;;;;;;;1.7;1.5;;;;;;;12.48;44.79688;95168.31;;;;
2020/02/17 02:08:03;;;;;;;1.7;1.5;;;;;;;12.48;44.79688;95168.31;;;;
2020/02/17 02:09:10;;;;;;;1.7;1.5;;;;;;;12.48;44.79688;95168.31;;;;
2020/02/17 02:10:18;;;;;;;1.7;1.5;;;;;;;12.48;44.79688;95168.31;;;;
2020/02/17 02:11:21;;;;;;;1.7;1.5;;;;;;;12.48;44.79688;95168.31;;;;
2020/02/17 02:12:22;;;;;;;1.7;1.5;;;;;;;12.48;44.79688;95168.31;;;;
2020/02/17 02:13:27;;;;;;;1.7;1.5;;;;;;;12.48;44.79688;95168.31;;;;
2020/02/17 02:14:35;;;;;;;1.7;1.5;;;;;;;12.48;44.79688;95168.31;;;;
2020/02/17 02:15:37;;;;;;;2.1;1.6;;;;;;;11.87;45.41602;95161.72;;;;
2020/02/17 02:16:44;;;;;;;2.1;1.6;;;;;;;11.87;45.41602;95161.72;;;;
2020/02/17 02:17:45;;;;;;;2.1;1.6;;;;;;;11.87;45.41602;95161.72;;;;
2020/02/17 02:18:45;;;;;;;2.1;1.6;;;;;;;11.87;45.41602;95161.72;;;;
2020/02/17 02:19:46;;;;;;;2.1;1.6;;;;;;;11.87;45.41602;95161.72;;;;
2020/02/17 02:20:52;;;;;;;2.1;1.6;;;;;;;11.87;45.41602;95161.72;;;;
2020/02/17 02:21:53;;;;;;;2.1;1.6;;;;;;;11.87;45.41602;95161.72;;;;
2020/02/17 02:22:57;;;;;;;2.1;1.6;;;;;;;11.87;45.41602;95161.72;;;;
2020/02/17 02:24:03;;;;;;;2.1;1.6;;;;;;;11.87;45.41602;95161.72;;;;
2020/02/17 02:25:04;;;;;;;2.1;1.6;;;;;;;11.87;45.41602;95161.72;;;;
2020/02/17 02:26:05;;;;;;;2.1;1.6;;;;;;;11.87;45.41602;95161.72;;;;
2020/02/17 02:27:05;;;;;;;1.65;1.4;;;;;;;11.53;45.69434;95158.69;;;;
2020/02/17 02:28:06;;;;;;;1.65;1.4;;;;;;;11.53;45.69434;95158.69;;;;
2020/02/17 02:29:07;;;;;;;1.65;1.4;;;;;;;11.53;45.69434;95158.69;;;;
2020/02/17 02:30:07;;;;;;;1.65;1.4;;;;;;;11.53;45.69434;95158.69;;;;
2020/02/17 02:32:24;;;;;;;1.65;1.4;;;;;;;11.53;45.69434;95158.69;;;;
2020/02/17 02:33:26;;;;;;;1.65;1.4;;;;;;;11.53;45.69434;95158.69;;;;
2020/02/17 02:34:34;;;;;;;1.65;1.4;;;;;;;11.53;45.69434;95158.69;;;;
2020/02/17 02:35:35;;;;;;;1.65;1.4;;;;;;;11.53;45.69434;95158.69;;;;
2020/02/17 02:36:36;;;;;;;1.65;1.4;;;;;;;11.53;45.69434;95158.69;;;;
2020/02/17 02:37:37;;;;;;;2.45;1.9;;;;;;;11.39;46.02539;95163.98;;;;
2020/02/17 02:38:41;;;;;;;2.45;1.9;;;;;;;11.39;46.02539;95163.98;;;;
2020/02/17 02:39:41;;;;;;;2.45;1.9;;;;;;;11.39;46.02539;95163.98;;;;
2020/02/17 02:40:42;;;;;;;2.45;1.9;;;;;;;11.39;46.02539;95163.98;;;;
2020/02/17 02:41:42;;;;;;;2.45;1.9;;;;;;;11.39;46.02539;95163.98;;;;
2020/02/17 02:42:43;;;;;;;2.45;1.9;;;;;;;11.39;46.02539;95163.98;;;;
2020/02/17 02:43:44;;;;;;;2.45;1.9;;;;;;;11.39;46.02539;95163.98;;;;
2020/02/17 02:44:44;;;;;;;2.45;1.9;;;;;;;11.39;46.02539;95163.98;;;;
2020/02/17 02:45:46;;;;;;;2.45;1.9;;;;;;;11.39;46.02539;95163.98;;;;
2020/02/17 02:46:46;;;;;;;2.45;1.9;;;;;;;11.39;46.02539;95163.98;;;;
2020/02/17 02:47:48;;;;;;;1.75;1.4;;;;;;;11.27;46.44531;95178.63;;;;
2020/02/17 02:48:48;;;;;;;1.75;1.4;;;;;;;11.27;46.44531;95178.63;;;;
2020/02/17 02:49:49;;;;;;;1.75;1.4;;;;;;;11.27;46.44531;95178.63;;;;
2020/02/17 02:50:51;;;;;;;1.75;1.4;;;;;;;11.27;46.44531;95178.63;;;;
2020/02/17 02:51:52;;;;;;;1.75;1.4;;;;;;;11.27;46.44531;95178.63;;;;
2020/02/17 02:53:00;;;;;;;1.75;1.4;;;;;;;11.27;46.44531;95178.63;;;;
2020/02/17 02:54:05;;;;;;;1.75;1.4;;;;;;;11.27;46.44531;95178.63;;;;
2020/02/17 02:55:08;;;;;;;1.75;1.4;;;;;;;11.27;46.44531;95178.63;;;;
2020/02/17 02:56:19;;;;;;;1.75;1.4;;;;;;;11.27;46.44531;95178.63;;;;
2020/02/17 02:57:25;;;;;;;1.75;1.4;;;;;;;11.27;46.44531;95178.63;;;;
2020/02/17 02:58:26;;;;;;;1.6;1.5;;;;;;;11.33;46.66699;95199.3;;;;
2020/02/17 02:59:28;;;;;;;1.6;1.5;;;;;;;11.33;46.66699;95199.3;;;;
2020/02/17 03:00:32;;;;;;;1.6;1.5;;;;;;;11.33;46.66699;95199.3;;;;
2020/02/17 03:01:33;;;;;;;1.6;1.5;;;;;;;11.33;46.66699;95199.3;;;;
2020/02/17 03:02:35;;;;;;;1.6;1.5;;;;;;;11.33;46.66699;95199.3;;;;
2020/02/17 03:06:50;;;;;;;1.6;1.5;;;;;;;11.33;46.66699;95199.3;;;;
2020/02/17 03:07:51;;;;;;;1.6;1.5;;;;;;;11.33;46.66699;95199.3;;;;
2020/02/17 03:08:51;;;;;;;1.8;1.6;;;;;;;11.77;46.5625;95216.58;;;;
2020/02/17 03:09:52;;;;;;;1.8;1.6;;;;;;;11.77;46.5625;95216.58;;;;
2020/02/17 03:10:52;;;;;;;1.8;1.6;;;;;;;11.77;46.5625;95216.58;;;;
2020/02/17 03:11:54;;;;;;;1.8;1.6;;;;;;;11.77;46.5625;95216.58;;;;
2020/02/17 03:12:55;;;;;;;1.8;1.6;;;;;;;11.77;46.5625;95216.58;;;;
2020/02/17 03:13:56;;;;;;;1.8;1.6;;;;;;;11.77;46.5625;95216.58;;;;
2020/02/17 03:14:59;;;;;;;1.8;1.6;;;;;;;11.77;46.5625;95216.58;;;;
2020/02/17 03:16:01;;;;;;;1.8;1.6;;;;;;;11.77;46.5625;95216.58;;;;
2020/02/17 03:17:02;;;;;;;1.8;1.6;;;;;;;11.77;46.5625;95216.58;;;;
2020/02/17 03:18:03;;;;;;;1.8;1.6;;;;;;;11.77;46.5625;95216.58;;;;
2020/02/17 03:19:04;;;;;;;1.8;1.6;;;;;;;11.77;46.5625;95216.58;;;;
2020/02/17 03:20:04;;;;;;;2;1.5;;;;;;;11.96;46.55078;95219.36;;;;
2020/02/17 03:21:05;;;;;;;2;1.5;;;;;;;11.96;46.55078;95219.36;;;;
2020/02/17 03:22:05;;;;;;;2;1.5;;;;;;;11.96;46.55078;95219.36;;;;
2020/02/17 03:23:06;;;;;;;2;1.5;;;;;;;11.96;46.55078;95219.36;;;;
2020/02/17 03:24:07;;;;;;;2;1.5;;;;;;;11.96;46.55078;95219.36;;;;
2020/02/17 03:25:07;;;;;;;2;1.5;;;;;;;11.96;46.55078;95219.36;;;;
2020/02/17 03:26:08;;;;;;;2;1.5;;;;;;;11.96;46.55078;95219.36;;;;
2020/02/17 03:27:08;;;;;;;2;1.5;;;;;;;11.96;46.55078;95219.36;;;;
2020/02/17 03:28:09;;;;;;;2;1.5;;;;;;;11.96;46.55078;95219.36;;;;
2020/02/17 03:29:09;;;;;;;2;1.5;;;;;;;11.96;46.55078;95219.36;;;;
2020/02/17 03:30:10;;;;;;;2.7;1.75;;;;;;;12.24;46.55957;95224.14;;;;
2020/02/17 03:31:10;;;;;;;2.7;1.75;;;;;;;12.24;46.55957;95224.14;;;;
2020/02/17 03:32:11;;;;;;;2.7;1.75;;;;;;;12.24;46.55957;95224.14;;;;
2020/02/17 03:33:11;;;;;;;2.7;1.75;;;;;;;12.24;46.55957;95224.14;;;;
2020/02/17 03:34:12;;;;;;;2.7;1.75;;;;;;;12.24;46.55957;95224.14;;;;
2020/02/17 03:35:12;;;;;;;2.7;1.75;;;;;;;12.24;46.55957;95224.14;;;;
2020/02/17 03:36:13;;;;;;;2.7;1.75;;;;;;;12.24;46.55957;95224.14;;;;
2020/02/17 03:37:14;;;;;;;2.7;1.75;;;;;;;12.24;46.55957;95224.14;;;;
2020/02/17 03:38:14;;;;;;;2.7;1.75;;;;;;;12.24;46.55957;95224.14;;;;
2020/02/17 03:39:15;;;;;;;2.7;1.75;;;;;;;12.24;46.55957;95224.14;;;;
2020/02/17 03:40:15;;;;;;;2.7;1.75;;;;;;;12.24;46.55957;95224.14;;;;
2020/02/17 03:41:16;;;;;;;4.1;2.05;;;;;;;12.54;46.50488;95240.42;;;;
2020/02/17 03:42:16;;;;;;;4.1;2.05;;;;;;;12.54;46.50488;95240.42;;;;
2020/02/17 03:43:17;;;;;;;4.1;2.05;;;;;;;12.54;46.50488;95240.42;;;;
2020/02/17 03:44:41;;;;;;;4.1;2.05;;;;;;;12.54;46.50488;95240.42;;;;
2020/02/17 03:45:44;;;;;;;4.1;2.05;;;;;;;12.54;46.50488;95240.42;;;;
2020/02/17 03:46:44;;;;;;;4.1;2.05;;;;;;;12.54;46.50488;95240.42;;;;
2020/02/17 03:47:45;;;;;;;4.1;2.05;;;;;;;12.54;46.50488;95240.42;;;;
2020/02/17 03:48:47;;;;;;;4.1;2.05;;;;;;;12.54;46.50488;95240.42;;;;
2020/02/17 03:49:47;;;;;;;4.1;2.05;;;;;;;12.54;46.50488;95240.42;;;;
2020/02/17 03:50:49;;;;;;;4.1;2.05;;;;;;;12.54;46.50488;95240.42;;;;
2020/02/17 03:51:50;;;;;;;2.05;1.8;;;;;;;12.97;46.57129;95229.22;;;;
2020/02/17 03:52:50;;;;;;;2.05;1.8;;;;;;;12.97;46.57129;95229.22;;;;
2020/02/17 03:53:51;;;;;;;2.05;1.8;;;;;;;12.97;46.57129;95229.22;;;;
2020/02/17 03:54:51;;;;;;;2.05;1.8;;;;;;;12.97;46.57129;95229.22;;;;
2020/02/17 03:55:52;;;;;;;2.05;1.8;;;;;;;12.97;46.57129;95229.22;;;;
2020/02/17 03:56:52;;;;;;;2.05;1.8;;;;;;;12.97;46.57129;95229.22;;;;
2020/02/17 03:57:53;;;;;;;2.05;1.8;;;;;;;12.97;46.57129;95229.22;;;;
2020/02/17 03:58:53;;;;;;;2.05;1.8;;;;;;;12.97;46.57129;95229.22;;;;
2020/02/17 03:59:54;;;;;;;2.05;1.8;;;;;;;12.97;46.57129;95229.22;;;;
2020/02/17 04:00:54;;;;;;;2.05;1.8;;;;;;;12.97;46.57129;95229.22;;;;
2020/02/17 04:01:55;;;;;;;5.3;2;;;;;;;13.19;46.80176;95245.92;;;;
2020/02/17 04:02:55;;;;;;;5.3;2;;;;;;;13.19;46.80176;95245.92;;;;
2020/02/17 04:03:56;;;;;;;5.3;2;;;;;;;13.19;46.80176;95245.92;;;;
2020/02/17 04:04:56;;;;;;;5.3;2;;;;;;;13.19;46.80176;95245.92;;;;
2020/02/17 04:05:57;;;;;;;5.3;2;;;;;;;13.19;46.80176;95245.92;;;;
2020/02/17 04:06:57;;;;;;;5.3;2;;;;;;;13.19;46.80176;95245.92;;;;
2020/02/17 04:07:58;;;;;;;5.3;2;;;;;;;13.19;46.80176;95245.92;;;;
2020/02/17 04:08:58;;;;;;;5.3;2;;;;;;;13.19;46.80176;95245.92;;;;
2020/02/17 04:09:59;;;;;;;5.3;2;;;;;;;13.19;46.80176;95245.92;;;;
2020/02/17 04:10:59;;;;;;;5.3;2;;;;;;;13.19;46.80176;95245.92;;;;
2020/02/17 04:12:00;;;;;;;5.3;2;;;;;;;13.19;46.80176;95245.92;;;;
2020/02/17 04:13:00;;;;;;;2.15;1.95;;;;;;;13.36;47.17773;95254.83;;;;
2020/02/17 04:14:01;;;;;;;2.15;1.95;;;;;;;13.36;47.17773;95254.83;;;;
2020/02/17 04:15:01;;;;;;;2.15;1.95;;;;;;;13.36;47.17773;95254.83;;;;
2020/02/17 04:16:02;;;;;;;2.15;1.95;;;;;;;13.36;47.17773;95254.83;;;;
2020/02/17 04:17:02;;;;;;;2.15;1.95;;;;;;;13.36;47.17773;95254.83;;;;
2020/02/17 04:18:03;;;;;;;2.15;1.95;;;;;;;13.36;47.17773;95254.83;;;;
2020/02/17 04:19:03;;;;;;;2.15;1.95;;;;;;;13.36;47.17773;95254.83;;;;
2020/02/17 04:20:04;;;;;;;2.15;1.95;;;;;;;13.36;47.17773;95254.83;;;;
2020/02/17 04:21:04;;;;;;;2.15;1.95;;;;;;;13.36;47.17773;95254.83;;;;
2020/02/17 04:22:05;;;;;;;2.15;1.95;;;;;;;13.36;47.17773;95254.83;;;;
2020/02/17 04:23:05;;;;;;;2.6;1.9;;;;;;;13.42;47.59668;95254.35;;;;
2020/02/17 04:24:06;;;;;;;2.6;1.9;;;;;;;13.42;47.59668;95254.35;;;;
2020/02/17 04:25:06;;;;;;;2.6;1.9;;;;;;;13.42;47.59668;95254.35;;;;
2020/02/17 04:26:07;;;;;;;2.6;1.9;;;;;;;13.42;47.59668;95254.35;;;;
2020/02/17 04:27:07;;;;;;;2.6;1.9;;;;;;;13.42;47.59668;95254.35;;;;
2020/02/17 04:28:08;;;;;;;2.6;1.9;;;;;;;13.42;47.59668;95254.35;;;;
2020/02/17 04:29:08;;;;;;;2.6;1.9;;;;;;;13.42;47.59668;95254.35;;;;
2020/02/17 04:30:09;;;;;;;2.6;1.9;;;;;;;13.42;47.59668;95254.35;;;;
2020/02/17 04:31:09;;;;;;;2.6;1.9;;;;;;;13.42;47.59668;95254.35;;;;
2020/02/17 04:32:10;;;;;;;2.6;1.9;;;;;;;13.42;47.59668;95254.35;;;;
2020/02/17 04:33:10;;;;;;;2.6;1.9;;;;;;;13.42;47.59668;95254.35;;;;
2020/02/17 04:34:10;;;;;;;2.1;1.85;;;;;;;13.39;48.09375;95266.92;;;;
2020/02/17 04:35:11;;;;;;;2.1;1.85;;;;;;;13.39;48.09375;95266.92;;;;
2020/02/17 04:36:11;;;;;;;2.1;1.85;;;;;;;13.39;48.09375;95266.92;;;;
2020/02/17 04:37:12;;;;;;;2.1;1.85;;;;;;;13.39;48.09375;95266.92;;;;
2020/02/17 04:38:12;;;;;;;2.1;1.85;;;;;;;13.39;48.09375;95266.92;;;;
2020/02/17 04:39:13;;;;;;;2.1;1.85;;;;;;;13.39;48.09375;95266.92;;;;
2020/02/17 04:40:13;;;;;;;2.1;1.85;;;;;;;13.39;48.09375;95266.92;;;;
2020/02/17 04:41:14;;;;;;;2.1;1.85;;;;;;;13.39;48.09375;95266.92;;;;
2020/02/17 04:42:14;;;;;;;2.1;1.85;;;;;;;13.39;48.09375;95266.92;;;;
2020/02/17 04:43:15;;;;;;;2.1;1.85;;;;;;;13.39;48.09375;95266.92;;;;
2020/02/17 04:44:15;;;;;;;2.7;1.9;;;;;;;13.21;48.81055;95276.85;;;;
2020/02/17 04:45:16;;;;;;;2.7;1.9;;;;;;;13.21;48.81055;95276.85;;;;
2020/02/17 04:46:16;;;;;;;2.7;1.9;;;;;;;13.21;48.81055;95276.85;;;;
2020/02/17 04:47:17;;;;;;;2.7;1.9;;;;;;;13.21;48.81055;95276.85;;;;
2020/02/17 04:48:17;;;;;;;2.7;1.9;;;;;;;13.21;48.81055;95276.85;;;;
2020/02/17 04:49:18;;;;;;;2.7;1.9;;;;;;;13.21;48.81055;95276.85;;;;
2020/02/17 04:55:30;;;;;;;2.7;2.2;;;;;;;13.05;49.47656;95273.14;;;;
2020/02/17 04:56:30;;;;;;;2.7;2.2;;;;;;;13.05;49.47656;95273.14;;;;
2020/02/17 04:57:32;;;;;;;2.7;2.2;;;;;;;13.05;49.47656;95273.14;;;;
2020/02/17 04:58:33;;;;;;;2.7;2.2;;;;;;;13.05;49.47656;95273.14;;;;
2020/02/17 04:59:33;;;;;;;2.7;2.2;;;;;;;13.05;49.47656;95273.14;;;;
2020/02/17 05:00:34;;;;;;;2.7;2.2;;;;;;;13.05;49.47656;95273.14;;;;
2020/02/17 05:01:34;;;;;;;2.7;2.2;;;;;;;13.05;49.47656;95273.14;;;;
2020/02/17 05:02:35;;;;;;;2.7;2.2;;;;;;;13.05;49.47656;95273.14;;;;
2020/02/17 05:03:35;;;;;;;2.7;2.2;;;;;;;13.05;49.47656;95273.14;;;;
2020/02/17 05:04:36;;;;;;;2.7;2.2;;;;;;;13.05;49.47656;95273.14;;;;
2020/02/17 05:05:36;;;;;;;2.3;1.8;;;;;;;12.84;50.27539;95283.39;;;;
2020/02/17 05:06:37;;;;;;;2.3;1.8;;;;;;;12.84;50.27539;95283.39;;;;
2020/02/17 05:07:37;;;;;;;2.3;1.8;;;;;;;12.84;50.27539;95283.39;;;;
2020/02/17 05:08:37;;;;;;;2.3;1.8;;;;;;;12.84;50.27539;95283.39;;;;
2020/02/17 05:09:38;;;;;;;2.3;1.8;;;;;;;12.84;50.27539;95283.39;;;;
2020/02/17 05:10:38;;;;;;;2.3;1.8;;;;;;;12.84;50.27539;95283.39;;;;
2020/02/17 05:11:39;;;;;;;2.3;1.8;;;;;;;12.84;50.27539;95283.39;;;;
2020/02/17 05:12:39;;;;;;;2.3;1.8;;;;;;;12.84;50.27539;95283.39;;;;
2020/02/17 05:13:40;;;;;;;2.3;1.8;;;;;;;12.84;50.27539;95283.39;;;;
2020/02/17 05:14:40;;;;;;;2.3;1.8;;;;;;;12.84;50.27539;95283.39;;;;
2020/02/17 05:15:41;;;;;;;2.3;1.8;;;;;;;12.84;50.27539;95283.39;;;;
2020/02/17 05:16:41;;;;;;;1.95;1.8;;;;;;;12.73;50.91211;95270.35;;;;
2020/02/17 05:17:42;;;;;;;1.95;1.8;;;;;;;12.73;50.91211;95270.35;;;;
2020/02/17 05:18:42;;;;;;;1.95;1.8;;;;;;;12.73;50.91211;95270.35;;;;
2020/02/17 05:19:42;;;;;;;1.95;1.8;;;;;;;12.73;50.91211;95270.35;;;;
2020/02/17 05:20:43;;;;;;;1.95;1.8;;;;;;;12.73;50.91211;95270.35;;;;
2020/02/17 05:21:43;;;;;;;1.95;1.8;;;;;;;12.73;50.91211;95270.35;;;;
2020/02/17 05:22:44;;;;;;;1.95;1.8;;;;;;;12.73;50.91211;95270.35;;;;
2020/02/17 05:23:44;;;;;;;1.95;1.8;;;;;;;12.73;50.91211;95270.35;;;;
2020/02/17 05:24:45;;;;;;;1.95;1.8;;;;;;;12.73;50.91211;95270.35;;;;
2020/02/17 05:25:45;;;;;;;1.95;1.8;;;;;;;12.73;50.91211;95270.35;;;;
2020/02/17 05:26:46;;;;;;;2.5;1.7;;;;;;;12.59;51.69727;95256.36;;;;
2020/02/17 05:27:46;;;;;;;2.5;1.7;;;;;;;12.59;51.69727;95256.36;;;;
2020/02/17 05:28:47;;;;;;;2.5;1.7;;;;;;;12.59;51.69727;95256.36;;;;
2020/02/17 05:29:47;;;;;;;2.5;1.7;;;;;;;12.59;51.69727;95256.36;;;;
2020/02/17 05:30:48;;;;;;;2.5;1.7;;;;;;;12.59;51.69727;95256.36;;;;
2020/02/17 05:31:48;;;;;;;2.5;1.7;;;;;;;12.59;51.69727;95256.36;;;;
2020/02/17 05:32:49;;;;;;;2.5;1.7;;;;;;;12.59;51.69727;95256.36;;;;
2020/02/17 05:33:49;;;;;;;2.5;1.7;;;;;;;12.59;51.69727;95256.36;;;;
2020/02/17 05:34:50;;;;;;;2.5;1.7;;;;;;;12.59;51.69727;95256.36;;;;
2020/02/17 05:35:50;;;;;;;2.5;1.7;;;;;;;12.59;51.69727;95256.36;;;;
2020/02/17 05:36:51;;;;;;;2.5;1.7;;;;;;;12.59;51.69727;95256.36;;;;
2020/02/17 05:37:51;;;;;;;2.05;1.8;;;;;;;12.63;52.40527;95257.89;;;;
2020/02/17 05:38:51;;;;;;;2.05;1.8;;;;;;;12.63;52.40527;95257.89;;;;
2020/02/17 05:39:52;;;;;;;2.05;1.8;;;;;;;12.63;52.40527;95257.89;;;;
2020/02/17 05:40:52;;;;;;;2.05;1.8;;;;;;;12.63;52.40527;95257.89;;;;
2020/02/17 05:41:53;;;;;;;2.05;1.8;;;;;;;12.63;52.40527;95257.89;;;;
2020/02/17 05:42:53;;;;;;;2.05;1.8;;;;;;;12.63;52.40527;95257.89;;;;
2020/02/17 05:43:54;;;;;;;2.05;1.8;;;;;;;12.63;52.40527;95257.89;;;;
2020/02/17 05:44:54;;;;;;;2.05;1.8;;;;;;;12.63;52.40527;95257.89;;;;
2020/02/17 05:45:55;;;;;;;2.05;1.8;;;;;;;12.63;52.40527;95257.89;;;;
2020/02/17 05:46:55;;;;;;;2.05;1.8;;;;;;;12.63;52.40527;95257.89;;;;
2020/02/17 05:47:56;;;;;;;2;1.8;;;;;;;12.63;53.1084;95242.99;;;;
2020/02/17 05:48:56;;;;;;;2;1.8;;;;;;;12.63;53.1084;95242.99;;;;
2020/02/17 05:49:56;;;;;;;2;1.8;;;;;;;12.63;53.1084;95242.99;;;;
2020/02/17 05:50:57;;;;;;;2;1.8;;;;;;;12.63;53.1084;95242.99;;;;
2020/02/17 05:51:57;;;;;;;2;1.8;;;;;;;12.63;53.1084;95242.99;;;;
2020/02/17 05:52:58;;;;;;;2;1.8;;;;;;;12.63;53.1084;95242.99;;;;
2020/02/17 05:53:58;;;;;;;2;1.8;;;;;;;12.63;53.1084;95242.99;;;;
2020/02/17 05:54:59;;;;;;;2;1.8;;;;;;;12.63;53.1084;95242.99;;;;
2020/02/17 05:55:59;;;;;;;2;1.8;;;;;;;12.63;53.1084;95242.99;;;;
2020/02/17 05:57:00;;;;;;;2;1.8;;;;;;;12.63;53.1084;95242.99;;;;
2020/02/17 05:58:00;;;;;;;2;1.8;;;;;;;12.63;53.1084;95242.99;;;;
2020/02/17 05:59:01;;;;;;;2.25;2.05;;;;;;;12.71;53.63867;95248;;;;
2020/02/17 06:00:01;;;;;;;2.25;2.05;;;;;;;12.71;53.63867;95248;;;;
2020/02/17 06:01:02;;;;;;;2.25;2.05;;;;;;;12.71;53.63867;95248;;;;
2020/02/17 06:02:02;;;;;;;2.25;2.05;;;;;;;12.71;53.63867;95248;;;;
2020/02/17 06:03:03;;;;;;;2.25;2.05;;;;;;;12.71;53.63867;95248;;;;
2020/02/17 06:04:03;;;;;;;2.25;2.05;;;;;;;12.71;53.63867;95248;;;;
2020/02/17 06:05:04;;;;;;;2.25;2.05;;;;;;;12.71;53.63867;95248;;;;
2020/02/17 06:06:04;;;;;;;2.25;2.05;;;;;;;12.71;53.63867;95248;;;;
2020/02/17 06:07:05;;;;;;;2.25;2.05;;;;;;;12.71;53.63867;95248;;;;
2020/02/17 06:08:05;;;;;;;2.25;2.05;;;;;;;12.71;53.63867;95248;;;;
2020/02/17 06:09:06;;;;;;;3.65;1.8;;;;;;;12.66;54.07617;95239.79;;;;
2020/02/17 06:10:06;;;;;;;3.65;1.8;;;;;;;12.66;54.07617;95239.79;;;;